createdAt,value
2022-12-25T00:01:22.472Z,9.70
2022-12-25T00:03:49.513Z,7.00
2022-12-25T00:06:16.843Z,7.22
2022-12-25T00:08:43.268Z,9.45
2022-12-25T00:11:13.013Z,9.95
2022-12-25T00:13:39.857Z,10.30
2022-12-25T00:16:13.333Z,10.55
2022-12-25T00:18:40.011Z,11.30
2022-12-25T00:21:07.252Z,11.88
2022-12-25T00:23:35.478Z,10.95
2022-12-25T00:26:11.845Z,9.93
2022-12-25T00:28:39.037Z,8.25
2022-12-25T00:31:08.127Z,6.22
2022-12-25T00:33:37.239Z,6.28
2022-12-25T00:36:06.485Z,5.93
2022-12-25T00:38:34.805Z,7.00
2022-12-25T00:41:09.385Z,5.47
2022-12-25T00:43:36.513Z,5.22
2022-12-25T00:46:05.295Z,5.45
2022-12-25T00:48:33.014Z,4.90
2022-12-25T00:51:02.059Z,5.93
2022-12-25T00:53:29.697Z,8.60
2022-12-25T00:56:07.574Z,8.45
2022-12-25T00:58:35.461Z,7.47
2022-12-25T01:01:06.799Z,7.95
2022-12-25T01:03:33.487Z,8.38
2022-12-25T01:06:02.943Z,8.68
2022-12-25T01:08:32.053Z,8.10
2022-12-25T01:11:04.716Z,6.22
2022-12-25T01:13:34.645Z,6.60
2022-12-25T01:16:11.115Z,5.65
2022-12-25T01:18:38.860Z,6.32
2022-12-25T01:21:10.215Z,6.38
2022-12-25T01:23:38.905Z,6.00
2022-12-25T01:26:09.093Z,6.35
2022-12-25T01:28:36.786Z,5.73
2022-12-25T01:31:04.601Z,5.40
2022-12-25T01:33:31.988Z,5.28
2022-12-25T01:35:59.444Z,5.45
2022-12-25T01:38:26.811Z,5.68
2022-12-25T01:40:53.706Z,4.22
2022-12-25T01:43:25.685Z,3.63
2022-12-25T01:45:55.031Z,3.10
2022-12-25T01:48:32.550Z,3.55
2022-12-25T01:51:02.231Z,4.88
2022-12-25T01:53:29.077Z,4.95
2022-12-25T01:56:01.088Z,5.53
2022-12-25T01:58:28.194Z,4.88
2022-12-25T02:00:54.671Z,4.68
2022-12-25T02:03:21.779Z,5.10
2022-12-25T02:05:48.493Z,4.75
2022-12-25T02:08:17.033Z,5.05
2022-12-25T02:10:44.714Z,6.05
2022-12-25T02:13:14.101Z,4.70
2022-12-25T02:15:57.198Z,5.00
2022-12-25T02:18:51.814Z,4.75
2022-12-25T02:21:35.013Z,5.20
2022-12-25T02:24:35.778Z,4.78
2022-12-25T02:27:18.094Z,5.28
2022-12-25T02:30:02.286Z,5.18
2022-12-25T02:32:51.155Z,4.90
2022-12-25T02:35:28.507Z,5.30
2022-12-25T02:51:30.359Z,4.80
2022-12-25T02:54:18.603Z,6.35
2022-12-25T02:57:07.698Z,6.60
2022-12-25T02:59:56.635Z,5.35
2022-12-25T03:02:42.752Z,6.45
2022-12-25T03:05:32.307Z,5.78
2022-12-25T03:08:05.102Z,6.35
2022-12-25T03:10:53.660Z,5.68
2022-12-25T03:13:24.378Z,6.38
2022-12-25T03:16:09.349Z,6.93
2022-12-25T03:18:36.201Z,5.93
2022-12-25T03:21:21.060Z,5.43
2022-12-25T03:24:13.841Z,6.00
2022-12-25T03:26:55.533Z,7.03
2022-12-25T03:29:42.468Z,5.60
2022-12-25T03:32:16.678Z,6.40
2022-12-25T03:35:16.448Z,6.88
2022-12-25T03:38:12.223Z,8.57
2022-12-25T03:41:42.090Z,8.18
2022-12-25T03:44:55.128Z,7.80
2022-12-25T03:47:49.584Z,7.43
2022-12-25T03:50:44.186Z,7.95
2022-12-25T03:53:33.979Z,7.70
2022-12-25T03:56:20.200Z,8.20
2022-12-25T03:59:22.863Z,7.13
2022-12-25T04:02:09.973Z,6.90
2022-12-25T04:04:55.597Z,6.57
2022-12-25T04:07:40.706Z,8.15
2022-12-25T04:10:26.817Z,7.53
2022-12-25T04:13:11.679Z,7.40
2022-12-25T04:15:56.925Z,8.40
2022-12-25T04:18:42.661Z,8.57
2022-12-25T04:21:27.848Z,8.65
2022-12-25T04:24:12.698Z,8.75
2022-12-25T04:26:57.793Z,7.60
2022-12-25T04:29:42.860Z,8.32
2022-12-25T04:32:28.059Z,7.72
2022-12-25T04:35:12.930Z,7.57
2022-12-25T04:37:39.330Z,6.30
2022-12-25T04:40:06.679Z,5.60
2022-12-25T04:42:33.072Z,5.82
2022-12-25T04:44:59.463Z,5.32
2022-12-25T04:47:25.891Z,5.45
2022-12-25T04:49:52.325Z,5.90
2022-12-25T04:52:18.708Z,7.20
2022-12-25T04:54:45.112Z,5.90
2022-12-25T04:57:11.511Z,6.28
2022-12-25T04:59:37.897Z,6.68
2022-12-25T05:02:04.467Z,5.50
2022-12-25T05:04:31.069Z,6.22
2022-12-25T05:06:57.466Z,7.88
2022-12-25T05:09:25.500Z,6.97
2022-12-25T05:11:52.106Z,7.57
2022-12-25T05:14:18.507Z,8.07
2022-12-25T05:16:44.949Z,7.80
2022-12-25T05:19:11.423Z,7.05
2022-12-25T05:21:37.821Z,8.02
2022-12-25T05:24:04.363Z,7.53
2022-12-25T05:26:30.810Z,7.85
2022-12-25T05:28:57.265Z,7.57
2022-12-25T05:31:23.736Z,8.50
2022-12-25T05:33:51.576Z,8.15
2022-12-25T05:36:18.822Z,9.43
2022-12-25T05:38:45.245Z,9.10
2022-12-25T05:41:11.672Z,7.78
2022-12-25T05:43:38.067Z,8.70
2022-12-25T05:46:06.619Z,8.07
2022-12-25T05:48:34.669Z,8.38
2022-12-25T05:51:12.163Z,8.73
2022-12-25T05:53:38.858Z,8.70
2022-12-25T05:56:07.162Z,9.13
2022-12-25T05:58:35.064Z,9.45
2022-12-25T06:01:01.492Z,10.35
2022-12-25T06:03:28.189Z,10.27
2022-12-25T06:05:55.333Z,11.75
2022-12-25T06:08:21.842Z,10.40
2022-12-25T06:10:48.287Z,9.93
2022-12-25T06:13:15.724Z,8.85
2022-12-25T06:15:42.566Z,10.27
2022-12-25T06:18:09.006Z,9.82
2022-12-25T06:20:35.570Z,9.20
2022-12-25T06:23:02.206Z,9.50
2022-12-25T06:25:28.642Z,11.25
2022-12-25T06:27:55.057Z,11.15
2022-12-25T06:30:21.436Z,11.77
2022-12-25T06:32:47.831Z,10.98
2022-12-25T06:35:14.276Z,11.75
2022-12-25T06:37:40.676Z,11.88
2022-12-25T06:40:07.677Z,11.90
2022-12-25T06:42:34.059Z,10.95
2022-12-25T06:45:00.469Z,10.90
2022-12-25T06:47:26.859Z,9.93
2022-12-25T06:49:53.270Z,10.40
2022-12-25T06:52:19.668Z,9.75
2022-12-25T06:54:47.062Z,9.00
2022-12-25T06:57:13.448Z,8.98
2022-12-25T06:59:39.894Z,8.02
2022-12-25T07:02:09.444Z,9.93
2022-12-25T07:04:40.548Z,9.82
2022-12-25T07:07:09.038Z,8.80
2022-12-25T07:09:36.117Z,8.30
2022-12-25T07:12:08.578Z,8.55
2022-12-25T07:14:34.981Z,11.13
2022-12-25T07:17:01.464Z,12.65
2022-12-25T07:19:27.966Z,11.45
2022-12-25T07:21:54.372Z,8.77
2022-12-25T07:24:22.218Z,8.50
2022-12-25T07:26:49.598Z,11.10
2022-12-25T07:29:16.184Z,9.82
2022-12-25T07:31:42.668Z,8.27
2022-12-25T07:34:09.295Z,8.88
2022-12-25T07:36:35.781Z,10.23
2022-12-25T07:39:02.172Z,12.02
2022-12-25T07:41:28.556Z,9.20
2022-12-25T07:44:12.744Z,13.35
2022-12-25T07:46:39.161Z,22.65
2022-12-25T07:49:05.560Z,18.55
2022-12-25T07:51:31.979Z,15.80
2022-12-25T07:53:58.422Z,14.57
2022-12-25T07:56:25.073Z,13.00
2022-12-25T07:58:51.558Z,23.23
2022-12-25T08:01:24.285Z,29.38
2022-12-25T08:03:56.500Z,28.20
2022-12-25T08:06:26.879Z,25.88
2022-12-25T08:08:53.376Z,20.10
2022-12-25T08:11:19.831Z,14.98
2022-12-25T08:13:46.267Z,12.43
2022-12-25T08:16:15.407Z,10.23
2022-12-25T08:18:43.002Z,16.00
2022-12-25T08:21:12.511Z,15.43
2022-12-25T08:23:45.056Z,19.23
2022-12-25T08:26:14.735Z,21.75
2022-12-25T08:28:41.315Z,17.38
2022-12-25T08:31:14.915Z,14.00
2022-12-25T08:33:41.694Z,17.70
2022-12-25T08:36:09.559Z,21.15
2022-12-25T08:38:36.759Z,22.52
2022-12-25T08:41:03.335Z,29.35
2022-12-25T08:43:30.014Z,25.17
2022-12-25T08:45:56.610Z,19.15
2022-12-25T08:48:23.056Z,15.65
2022-12-25T08:50:51.109Z,20.00
2022-12-25T08:53:17.829Z,14.68
2022-12-25T08:55:44.778Z,16.02
2022-12-25T08:58:11.565Z,18.73
2022-12-25T09:00:38.050Z,13.68
2022-12-25T09:03:04.670Z,10.65
2022-12-25T09:05:31.295Z,14.68
2022-12-25T09:07:57.668Z,10.73
2022-12-25T09:10:24.077Z,10.75
2022-12-25T09:12:50.467Z,9.38
2022-12-25T09:15:16.918Z,11.00
2022-12-25T09:17:43.318Z,10.32
2022-12-25T09:20:09.868Z,9.65
2022-12-25T09:22:36.306Z,10.15
2022-12-25T09:25:02.714Z,9.65
2022-12-25T09:27:29.108Z,10.27
2022-12-25T09:29:55.512Z,9.75
2022-12-25T09:32:21.977Z,11.38
2022-12-25T09:34:48.389Z,11.30
2022-12-25T09:37:14.788Z,11.80
2022-12-25T09:39:46.405Z,14.57
2022-12-25T09:42:21.864Z,19.65
2022-12-25T09:44:57.599Z,19.13
2022-12-25T09:47:29.025Z,13.35
2022-12-25T09:50:06.791Z,13.48
2022-12-25T09:52:41.513Z,12.98
2022-12-25T09:55:19.845Z,11.80
2022-12-25T09:57:51.357Z,11.77
2022-12-25T10:00:20.768Z,13.18
2022-12-25T10:03:05.878Z,12.77
2022-12-25T10:05:55.719Z,14.15
2022-12-25T10:08:40.752Z,14.15
2022-12-25T10:11:36.908Z,15.23
2022-12-25T10:14:19.847Z,14.68
2022-12-25T10:16:58.289Z,15.10
2022-12-25T10:19:37.618Z,15.93
2022-12-25T10:22:12.585Z,16.10
2022-12-25T10:24:46.498Z,16.15
2022-12-25T10:27:19.835Z,16.50
2022-12-25T10:29:52.708Z,16.55
2022-12-25T10:32:19.262Z,17.95
2022-12-25T10:34:45.813Z,17.80
2022-12-25T10:37:12.810Z,16.98
2022-12-25T10:39:46.089Z,16.85
2022-12-25T10:42:37.287Z,18.02
2022-12-25T10:45:07.947Z,19.48
2022-12-25T10:47:38.986Z,17.75
2022-12-25T10:50:25.319Z,18.15
2022-12-25T10:52:59.840Z,17.90
2022-12-25T10:55:29.264Z,18.65
2022-12-25T10:57:57.845Z,19.73
2022-12-25T11:00:28.102Z,18.73
2022-12-25T11:02:55.281Z,21.00
2022-12-25T11:05:33.109Z,19.40
2022-12-25T11:08:03.507Z,18.80
2022-12-25T11:10:35.380Z,15.27
2022-12-25T11:13:05.278Z,20.80
2022-12-25T11:15:41.561Z,21.08
2022-12-25T11:18:22.754Z,20.40
2022-12-25T11:23:22.163Z,19.33
2022-12-25T11:26:03.223Z,20.60
2022-12-25T11:28:31.627Z,21.30
2022-12-25T11:31:07.605Z,21.40
2022-12-25T11:33:44.860Z,20.58
2022-12-25T11:36:19.928Z,21.15
2022-12-25T11:38:46.332Z,21.48
2022-12-25T11:41:15.285Z,21.00
2022-12-25T11:43:53.547Z,21.60
2022-12-25T11:46:30.721Z,21.13
2022-12-25T11:49:01.275Z,21.75
2022-12-25T11:51:33.363Z,25.15
2022-12-25T11:54:12.240Z,23.77
2022-12-25T11:56:38.701Z,23.98
2022-12-25T11:59:18.853Z,23.85
2022-12-25T12:01:52.182Z,25.70
2022-12-25T12:04:30.057Z,24.77
2022-12-25T12:07:21.683Z,25.38
2022-12-25T12:10:13.700Z,22.75
2022-12-25T12:13:04.652Z,22.95
2022-12-25T12:15:47.412Z,22.33
2022-12-25T12:18:22.617Z,23.63
2022-12-25T12:21:06.674Z,22.83
2022-12-25T12:23:54.341Z,23.50
2022-12-25T12:26:23.184Z,25.20
2022-12-25T12:28:52.624Z,23.73
2022-12-25T12:31:19.235Z,22.27
2022-12-25T12:33:55.011Z,23.75
2022-12-25T12:36:34.615Z,23.38
2022-12-25T12:39:01.779Z,20.30
2022-12-25T12:41:44.405Z,21.40
2022-12-25T12:44:12.595Z,21.77
2022-12-25T12:46:56.868Z,21.35
2022-12-25T12:49:29.173Z,20.02
2022-12-25T12:52:33.420Z,20.45
2022-12-25T12:55:03.553Z,20.02
2022-12-25T12:57:34.367Z,22.07
2022-12-25T13:00:08.405Z,21.30
2022-12-25T13:02:58.276Z,19.02
2022-12-25T13:05:43.431Z,19.25
2022-12-25T13:08:35.866Z,17.90
2022-12-25T13:11:09.818Z,18.08
2022-12-25T13:13:40.086Z,19.55
2022-12-25T13:16:06.953Z,17.90
2022-12-25T13:18:33.932Z,17.52
2022-12-25T13:21:04.998Z,17.25
2022-12-25T13:23:33.853Z,19.75
2022-12-25T13:26:11.602Z,18.25
2022-12-25T13:28:38.180Z,16.77
2022-12-25T13:31:13.689Z,17.08
2022-12-25T13:33:44.506Z,16.88
2022-12-25T13:36:13.549Z,18.42
2022-12-25T13:38:49.093Z,16.77
2022-12-25T13:41:40.109Z,17.33
2022-12-25T13:44:19.586Z,17.58
2022-12-25T13:46:46.751Z,16.92
2022-12-25T13:49:21.971Z,16.58
2022-12-25T13:51:49.248Z,17.02
2022-12-25T13:54:17.153Z,16.55
2022-12-25T13:56:49.926Z,16.52
2022-12-25T13:59:19.159Z,16.40
2022-12-25T14:01:46.389Z,17.40
2022-12-25T14:04:18.549Z,16.67
2022-12-25T14:06:45.049Z,16.85
2022-12-25T14:09:12.806Z,18.02
2022-12-25T14:11:43.023Z,14.90
2022-12-25T14:14:19.755Z,16.23
2022-12-25T14:16:49.321Z,15.98
2022-12-25T14:19:25.114Z,16.83
2022-12-25T14:22:11.317Z,16.25
2022-12-25T14:24:40.061Z,17.88
2022-12-25T14:27:19.599Z,18.15
2022-12-25T14:29:47.781Z,16.08
2022-12-25T14:32:17.867Z,17.25
2022-12-25T14:34:47.212Z,18.00
2022-12-25T14:37:21.596Z,16.75
2022-12-25T14:40:00.344Z,15.90
2022-12-25T14:42:32.281Z,16.02
2022-12-25T14:45:06.260Z,16.13
2022-12-25T14:47:49.394Z,15.02
2022-12-25T14:50:25.142Z,17.75
2022-12-25T14:52:51.844Z,16.08
2022-12-25T14:55:21.451Z,16.38
2022-12-25T14:58:00.828Z,16.35
2022-12-25T15:00:31.765Z,15.05
2022-12-25T15:05:32.044Z,13.25
2022-12-25T15:08:01.173Z,14.20
2022-12-25T15:13:15.573Z,14.70
2022-12-25T15:15:49.350Z,13.60
2022-12-25T15:18:16.132Z,15.20
2022-12-25T15:20:42.568Z,13.68
2022-12-25T15:23:19.666Z,13.57
2022-12-25T15:25:51.025Z,14.20
2022-12-25T15:28:17.860Z,14.15
2022-12-25T15:30:44.372Z,13.82
2022-12-25T15:33:14.517Z,13.93
2022-12-25T15:35:41.426Z,13.93
2022-12-25T15:38:07.830Z,14.10
2022-12-25T15:40:34.637Z,15.18
2022-12-25T15:43:06.417Z,13.75
2022-12-25T15:45:38.213Z,13.65
2022-12-25T15:48:04.745Z,13.43
2022-12-25T15:51:08.787Z,14.82
2022-12-25T15:53:35.198Z,15.15
2022-12-25T15:56:01.609Z,14.77
2022-12-25T15:58:27.995Z,14.13
2022-12-25T16:00:57.276Z,14.90
2022-12-25T16:03:23.726Z,13.98
2022-12-25T16:05:50.228Z,14.98
2022-12-25T16:08:16.612Z,15.82
2022-12-25T16:10:43.054Z,15.75
2022-12-25T16:13:09.459Z,15.68
2022-12-25T16:15:35.983Z,15.05
2022-12-25T16:18:02.660Z,15.75
2022-12-25T16:20:29.091Z,16.15
2022-12-25T16:22:55.561Z,15.32
2022-12-25T16:25:22.128Z,14.40
2022-12-25T16:27:48.559Z,15.93
2022-12-25T16:30:17.405Z,16.80
2022-12-25T16:32:45.185Z,15.60
2022-12-25T16:35:12.240Z,15.95
2022-12-25T16:37:38.811Z,17.13
2022-12-25T16:40:06.934Z,16.05
2022-12-25T16:42:33.613Z,17.10
2022-12-25T16:45:00.001Z,17.23
2022-12-25T16:47:26.440Z,17.60
2022-12-25T16:49:52.888Z,17.95
2022-12-25T16:52:19.294Z,17.20
2022-12-25T16:54:49.294Z,17.52
2022-12-25T16:57:15.737Z,16.00
2022-12-25T16:59:43.258Z,17.33
2022-12-25T17:02:16.966Z,18.92
2022-12-25T17:04:47.598Z,17.35
2022-12-25T17:07:24.715Z,16.83
2022-12-25T17:09:51.129Z,17.58
2022-12-25T17:12:17.556Z,17.73
2022-12-25T17:14:43.972Z,18.55
2022-12-25T17:17:10.373Z,18.15
2022-12-25T17:19:36.909Z,17.73
2022-12-25T17:22:03.307Z,16.77
2022-12-25T17:24:29.885Z,16.65
2022-12-25T17:26:56.288Z,18.05
2022-12-25T17:29:23.104Z,17.90
2022-12-25T17:31:50.062Z,18.23
2022-12-25T17:34:16.730Z,17.08
2022-12-25T17:36:43.123Z,17.50
2022-12-25T17:39:10.816Z,17.77
2022-12-25T17:41:37.312Z,16.83
2022-12-25T17:44:03.839Z,17.65
2022-12-25T17:46:31.065Z,19.42
2022-12-25T17:48:59.606Z,17.83
2022-12-25T17:51:27.476Z,18.08
2022-12-25T17:53:56.542Z,18.65
2022-12-25T17:56:24.059Z,19.08
2022-12-25T17:58:56.231Z,19.23
2022-12-25T18:01:24.865Z,19.40
2022-12-25T18:03:52.236Z,20.02
2022-12-25T18:06:21.731Z,19.40
2022-12-25T18:08:49.238Z,20.98
2022-12-25T18:11:18.790Z,20.58
2022-12-25T18:13:48.288Z,19.92
2022-12-25T18:16:15.212Z,19.13
2022-12-25T18:18:45.203Z,19.85
2022-12-25T18:21:16.055Z,20.15
2022-12-25T18:23:42.458Z,18.88
2022-12-25T18:26:11.782Z,19.42
2022-12-25T18:28:39.292Z,18.88
2022-12-25T18:31:10.500Z,18.58
2022-12-25T18:33:36.992Z,18.90
2022-12-25T18:36:03.692Z,19.42
2022-12-25T18:38:30.127Z,20.15
2022-12-25T18:40:56.532Z,18.10
2022-12-25T18:43:54.148Z,18.50
2022-12-25T18:46:09.958Z,19.27
2022-12-25T18:48:37.312Z,19.77
2022-12-25T18:51:06.979Z,19.13
2022-12-25T18:53:34.081Z,19.23
2022-12-25T18:56:06.624Z,18.48
2022-12-25T18:58:33.128Z,18.92
2022-12-25T19:00:59.578Z,20.17
2022-12-25T19:03:26.276Z,19.80
2022-12-25T19:05:52.737Z,18.73
2022-12-25T19:08:19.123Z,19.38
2022-12-25T19:10:45.534Z,19.08
2022-12-25T19:13:11.997Z,19.60
2022-12-25T19:15:43.390Z,19.77
2022-12-25T19:18:10.288Z,20.45
2022-12-25T19:20:39.377Z,20.42
2022-12-25T19:23:06.403Z,20.23
2022-12-25T19:25:33.181Z,20.60
2022-12-25T19:27:59.627Z,20.20
2022-12-25T19:30:26.017Z,20.25
2022-12-25T19:32:52.445Z,18.90
2022-12-25T19:35:18.865Z,20.90
2022-12-25T19:37:45.590Z,21.95
2022-12-25T19:40:12.151Z,20.48
2022-12-25T19:42:38.931Z,21.35
2022-12-25T19:45:05.998Z,21.05
2022-12-25T19:47:32.440Z,19.80
2022-12-25T19:50:02.624Z,21.70
2022-12-25T19:54:56.280Z,21.40
2022-12-25T19:57:22.711Z,21.40
2022-12-25T19:59:49.386Z,20.58
2022-12-25T20:02:15.876Z,21.38
2022-12-25T20:04:43.287Z,21.42
2022-12-25T20:07:09.754Z,20.58
2022-12-25T20:09:36.929Z,21.65
2022-12-25T20:12:03.422Z,21.85
2022-12-25T20:14:29.826Z,23.15
2022-12-25T20:16:57.630Z,21.00
2022-12-25T20:19:24.128Z,22.55
2022-12-25T20:21:50.546Z,21.73
2022-12-25T20:24:16.991Z,20.52
2022-12-25T20:26:47.543Z,20.58
2022-12-25T20:29:14.769Z,21.45
2022-12-25T20:31:41.272Z,22.00
2022-12-25T20:34:10.847Z,22.00
2022-12-25T20:36:38.234Z,22.02
2022-12-25T20:39:09.917Z,18.70
2022-12-25T20:41:37.541Z,20.70
2022-12-25T20:44:04.361Z,19.67
2022-12-25T20:46:30.899Z,18.70
2022-12-25T20:48:57.437Z,19.23
2022-12-25T20:51:25.526Z,20.48
2022-12-25T20:53:52.538Z,19.13
2022-12-25T20:56:22.066Z,18.05
2022-12-25T20:58:52.811Z,17.92
2022-12-25T21:01:19.355Z,16.58
2022-12-25T21:03:45.895Z,16.67
2022-12-25T21:06:12.948Z,16.15
2022-12-25T21:08:40.839Z,16.08
2022-12-25T21:11:07.806Z,16.48
2022-12-25T21:13:36.672Z,16.15
2022-12-25T21:16:08.526Z,16.45
2022-12-25T21:18:35.278Z,16.85
2022-12-25T21:21:05.600Z,15.80
2022-12-25T21:23:32.647Z,17.33
2022-12-25T21:25:59.128Z,15.55
2022-12-25T21:28:27.135Z,15.43
2022-12-25T21:30:53.558Z,15.38
2022-12-25T21:33:38.681Z,14.68
2022-12-25T21:36:10.308Z,14.65
2022-12-25T21:38:37.652Z,16.10
2022-12-25T21:41:10.612Z,15.43
2022-12-25T21:43:38.678Z,15.18
2022-12-25T21:46:11.458Z,15.48
2022-12-25T21:48:38.664Z,14.23
2022-12-25T21:51:31.405Z,15.50
2022-12-25T21:53:58.259Z,12.93
2022-12-25T21:56:25.532Z,14.63
2022-12-25T21:58:51.993Z,14.73
2022-12-25T22:01:18.885Z,15.52
2022-12-25T22:03:45.792Z,14.27
2022-12-25T22:06:31.707Z,14.68
2022-12-25T22:08:58.198Z,14.25
2022-12-25T22:11:44.139Z,14.50
2022-12-25T22:14:51.584Z,14.43
2022-12-25T22:17:50.800Z,13.90
2022-12-25T22:20:25.454Z,14.60
2022-12-25T22:22:52.403Z,13.65
2022-12-25T22:25:20.214Z,13.68
2022-12-25T22:27:48.030Z,13.82
2022-12-25T22:30:28.799Z,14.70
2022-12-25T22:32:58.062Z,12.98
2022-12-25T22:35:24.668Z,13.32
2022-12-25T22:37:51.330Z,13.23
2022-12-25T22:40:19.602Z,12.52
2022-12-25T22:42:46.354Z,14.05
2022-12-25T22:45:12.982Z,13.68
2022-12-25T22:47:42.115Z,12.55
2022-12-25T22:50:09.741Z,12.38
2022-12-25T22:52:36.902Z,11.90
2022-12-25T22:55:04.314Z,12.02
2022-12-25T22:57:30.734Z,11.77
2022-12-25T22:59:57.146Z,11.30
2022-12-25T23:02:23.767Z,10.98
2022-12-25T23:04:50.498Z,11.40
2022-12-25T23:07:17.104Z,11.35
2022-12-25T23:09:44.566Z,11.05
2022-12-25T23:12:31.709Z,9.82
2022-12-25T23:14:58.140Z,10.48
2022-12-25T23:17:43.280Z,11.15
2022-12-25T23:20:29.552Z,10.93
2022-12-25T23:23:14.646Z,9.48
2022-12-25T23:25:59.971Z,10.35
2022-12-25T23:28:45.121Z,9.75
2022-12-25T23:31:11.655Z,10.00
2022-12-25T23:33:38.096Z,10.05
2022-12-25T23:36:05.103Z,10.73
2022-12-25T23:38:31.504Z,10.80
2022-12-25T23:40:57.886Z,9.65
2022-12-25T23:43:24.332Z,8.82
2022-12-25T23:45:50.745Z,10.25
2022-12-25T23:48:17.158Z,9.00
2022-12-25T23:50:43.538Z,10.10
2022-12-25T23:53:10.950Z,9.13
2022-12-25T23:55:37.383Z,9.05
2022-12-25T23:58:04.011Z,10.10
